Time;durP1;ratioP1;P1;durP2;ratioP2;P2;SDS_P1;SDS_P2;PMS_P1;PMS_P2;Temp;Humidity;BMP_temperature;BMP_pressure;BME280_temperature;BME280_humidity;BME280_pressure;Samples;Min_cycle;Max_cycle;Signal;HPM_P1;HPM_P2
2022/01/19 00:00:24;;;;;;;12.47;5.30;;;0.70;65.30;;;0.46;51.66;96218.00;5005056;28;20480;-60
2022/01/19 00:02:51;;;;;;;9.23;4.93;;;0.70;65.10;;;0.44;51.44;96220.66;5005952;28;20461;-57
2022/01/19 00:05:18;;;;;;;6.63;4.77;;;0.70;65.20;;;0.43;51.28;96220.69;5006935;28;20892;-58
2022/01/19 00:07:46;;;;;;;6.70;4.37;;;0.70;65.40;;;0.43;51.82;96229.28;5008651;28;20450;-58
2022/01/19 00:10:17;;;;;;;16.93;5.80;;;0.70;65.40;;;0.44;51.54;96231.00;5008796;28;20505;-58
2022/01/19 00:12:45;;;;;;;8.83;3.90;;;0.70;65.60;;;0.46;51.72;96238.72;5006102;28;20496;-59
2022/01/19 00:15:12;;;;;;;6.83;3.70;;;0.70;65.60;;;0.44;51.94;96241.34;5008115;28;20899;-57
2022/01/19 00:17:41;;;;;;;9.97;4.57;;;0.70;66.00;;;0.45;51.11;96243.06;5006824;28;20822;-56
2022/01/19 00:20:09;;;;;;;9.93;4.40;;;0.70;65.60;;;0.46;51.38;96243.88;5008683;28;20966;-58
2022/01/19 00:22:37;;;;;;;13.57;4.97;;;0.70;65.90;;;0.46;51.28;96239.56;5005718;28;20512;-60
2022/01/19 00:25:07;;;;;;;11.43;4.27;;;0.70;65.50;;;0.49;51.64;96254.16;5007915;28;20457;-57
2022/01/19 00:27:34;;;;;;;9.33;3.90;;;0.80;65.90;;;0.51;51.13;96257.53;5007665;28;20461;-58
2022/01/19 00:30:02;;;;;;;5.83;4.10;;;0.80;65.60;;;0.51;51.51;96253.22;5008179;28;20493;-57
2022/01/19 00:32:29;;;;;;;7.13;3.80;;;0.80;65.50;;;0.49;51.18;96267.94;5006595;28;20453;-57
2022/01/19 00:34:59;;;;;;;7.53;3.50;;;0.80;65.20;;;0.46;51.01;96269.78;5008085;28;20611;-58
2022/01/19 00:37:26;;;;;;;10.73;4.50;;;0.70;65.30;;;0.43;51.28;96257.75;5005369;28;20449;-58
2022/01/19 00:39:53;;;;;;;7.90;4.23;;;0.70;65.50;;;0.39;51.08;96258.75;5008458;28;20985;-56
2022/01/19 00:42:20;;;;;;;7.53;3.53;;;0.70;65.30;;;0.34;51.11;96266.66;5008360;28;20458;-58
2022/01/19 00:44:48;;;;;;;11.70;4.07;;;0.60;65.30;;;0.32;51.87;96267.56;5008411;28;20452;-57
2022/01/19 00:47:15;;;;;;;3.97;2.97;;;0.60;66.00;;;0.30;51.45;96270.22;5007581;28;20457;-58
2022/01/19 00:49:43;;;;;;;6.30;4.00;;;0.60;65.90;;;0.30;51.70;96272.78;5007941;28;20461;-57
2022/01/19 00:52:12;;;;;;;9.67;3.90;;;0.60;66.00;;;0.30;52.19;96287.47;5007585;28;20564;-58
2022/01/19 00:54:40;;;;;;;5.70;4.30;;;0.60;66.20;;;0.31;51.40;96292.63;5007951;28;20934;-59
2022/01/19 00:57:07;;;;;;;12.73;4.37;;;0.60;66.10;;;0.30;51.32;96301.25;5004790;28;21370;-58
2022/01/19 00:59:34;;;;;;;8.87;5.30;;;0.60;66.10;;;0.27;51.66;96292.75;5008042;28;20456;-57
2022/01/19 01:02:02;;;;;;;13.80;4.30;;;0.60;66.00;;;0.28;52.30;96291.84;5007611;28;20506;-57
2022/01/19 01:04:29;;;;;;;13.83;4.70;;;0.60;66.50;;;0.27;51.81;96301.34;5009864;28;20446;-59
2022/01/19 01:06:57;;;;;;;9.73;4.80;;;0.60;66.40;;;0.28;51.65;96300.47;5010057;28;20682;-57
2022/01/19 01:09:25;;;;;;;7.13;3.70;;;0.60;66.50;;;0.26;51.86;96304.81;5012292;28;20456;-58
2022/01/19 01:12:00;;;;;;;8.93;4.07;;;0.60;66.60;;;0.25;52.38;96308.31;5011606;28;20500;-56
2022/01/19 01:18:17;;;;;;;15.90;4.10;;;0.50;66.60;;;0.21;52.11;96300.66;5009939;28;20542;-57
2022/01/19 01:20:02;;;;;;;6.83;4.03;;;0.50;67.00;;;0.18;52.06;96292.09;5010389;28;20449;-57
2022/01/19 01:22:29;;;;;;;8.20;4.60;;;0.50;67.40;;;0.18;51.86;96293.84;5006843;28;20450;-57
2022/01/19 01:24:58;;;;;;;4.83;3.40;;;0.40;67.10;;;0.17;52.30;96300.75;5011070;28;20457;-57
2022/01/19 01:27:25;;;;;;;5.43;3.57;;;0.40;67.10;;;0.17;51.82;96294.72;5011191;28;20461;-57
2022/01/19 01:29:52;;;;;;;8.20;4.00;;;0.40;66.90;;;0.14;52.35;96281.84;5009842;28;20561;-57
2022/01/19 01:32:20;;;;;;;8.83;4.10;;;0.40;66.90;;;0.12;52.18;96281.06;5009955;28;20868;-56
2022/01/19 01:34:47;;;;;;;8.30;3.90;;;0.40;67.00;;;0.08;52.47;96284.59;5011480;28;20958;-58
2022/01/19 01:37:14;;;;;;;11.33;4.20;;;0.40;67.30;;;0.06;51.83;96282.06;5011108;28;20461;-58
2022/01/19 01:39:42;;;;;;;6.20;2.80;;;0.40;67.20;;;0.08;52.82;96274.25;5011729;28;20552;-58
2022/01/19 01:42:11;;;;;;;3.90;3.50;;;0.40;67.30;;;0.11;52.20;96271.59;5008847;28;20903;-58
2022/01/19 01:44:40;;;;;;;12.43;3.97;;;0.40;67.40;;;0.14;52.66;96277.56;5010670;28;20484;-57
2022/01/19 01:47:08;;;;;;;5.43;3.77;;;0.40;67.30;;;0.16;52.56;96272.34;5005411;28;20971;-57
2022/01/19 01:49:46;;;;;;;8.03;2.90;;;0.40;67.40;;;0.17;52.48;96271.44;5011138;28;20460;-56
2022/01/19 01:55:02;;;;;;;4.50;3.03;;;0.50;67.40;;;0.21;52.32;96259.28;4991199;28;20456;-57
2022/01/19 01:57:31;;;;;;;10.10;4.37;;;0.50;67.40;;;0.18;52.15;96260.19;5009241;28;20458;-58
2022/01/19 01:59:58;;;;;;;7.37;3.70;;;0.50;67.30;;;0.14;51.53;96254.28;5008049;28;20541;-57
2022/01/19 02:02:25;;;;;;;5.23;3.60;;;0.40;67.00;;;0.10;52.44;96252.66;5010644;28;20458;-57
2022/01/19 02:04:53;;;;;;;6.97;3.83;;;0.40;67.20;;;0.07;51.86;96239.78;5010125;28;20458;-56
2022/01/19 02:07:32;;;;;;;5.10;3.57;;;0.40;67.30;;;0.06;52.04;96235.50;5009253;28;20991;-56
2022/01/19 02:10:02;;;;;;;11.10;4.77;;;0.40;67.00;;;0.06;52.08;96232.06;5009898;28;20509;-56
2022/01/19 02:23:37;;;;;;;6.20;3.93;;;0.40;67.30;;;0.06;52.46;96229.50;5009805;28;20501;-58
2022/01/19 02:26:09;;;;;;;6.30;4.27;;;0.30;67.20;;;0.05;52.07;96213.13;5009561;28;20476;-56
2022/01/19 02:36:31;;;;;;;6.83;4.07;;;0.40;67.40;;;0.11;52.55;96219.84;4933595;29;20621;-57
2022/01/19 02:40:14;;;;;;;4.77;3.57;;;0.40;67.30;;;0.17;51.79;96219.69;5009075;28;20520;-57
2022/01/19 02:42:55;;;;;;;7.80;3.90;;;0.40;67.30;;;0.15;51.57;96218.88;5009897;28;20449;-58
2022/01/19 02:50:52;;;;;;;14.03;4.97;;;0.40;67.00;;;0.08;51.92;96233.75;5008942;28;20493;-58
2022/01/19 02:53:21;;;;;;;5.87;3.83;;;0.40;67.20;;;0.07;51.85;96226.88;5009458;28;20515;-57
2022/01/19 02:55:48;;;;;;;8.30;4.07;;;0.30;66.60;;;0.03;51.54;96235.59;5005087;28;20556;-57
2022/01/19 02:58:20;;;;;;;7.10;4.00;;;0.30;66.90;;;0.01;51.98;96226.19;5005208;28;20456;-57
2022/01/19 03:08:42;;;;;;;11.63;4.83;;;0.30;67.10;;;-0.04;51.66;96234.91;5009028;28;20507;-58
2022/01/19 03:09:06;;;;;;;10.90;4.40;;;0.20;66.80;;;-0.11;51.72;96233.41;5005213;28;20448;-58
2022/01/19 03:11:36;;;;;;;7.20;3.87;;;0.20;67.00;;;-0.14;51.79;96224.88;5007753;28;20596;-57
2022/01/19 03:14:07;;;;;;;9.50;3.70;;;0.20;67.10;;;-0.19;52.34;96214.66;5007301;28;20918;-57
2022/01/19 03:16:35;;;;;;;5.30;3.50;;;0.10;67.00;;;-0.22;52.33;96219.91;5005650;28;20998;-56
2022/01/19 03:19:03;;;;;;;5.17;3.73;;;0.10;67.00;;;-0.22;52.14;96219.91;5008831;28;20461;-57
2022/01/19 03:21:30;;;;;;;7.77;3.93;;;0.10;67.00;;;-0.28;52.27;96215.75;5009833;28;20474;-58
2022/01/19 03:23:59;;;;;;;5.83;4.37;;;0.00;66.90;;;-0.31;52.16;96213.25;5008000;28;20974;-58
2022/01/19 03:26:31;;;;;;;5.57;4.27;;;0.00;66.90;;;-0.33;52.37;96221.94;5008816;28;20497;-58
2022/01/19 03:28:58;;;;;;;7.30;4.93;;;0.00;67.30;;;-0.34;52.27;96215.91;5007148;28;20450;-57
2022/01/19 03:31:26;;;;;;;17.43;4.70;;;0.00;67.30;;;-0.33;53.00;96222.75;5005731;28;20497;-58
2022/01/19 03:33:53;;;;;;;7.53;3.20;;;0.00;68.10;;;-0.37;52.40;96221.16;5008410;28;20793;-58
2022/01/19 03:36:21;;;;;;;11.57;3.73;;;0.00;67.60;;;-0.37;52.40;96216.84;5009253;28;20489;-57
2022/01/19 03:38:48;;;;;;;6.07;3.60;;;-0.10;67.50;;;-0.33;52.93;96234.84;5005757;28;20974;-57
2022/01/19 03:41:16;;;;;;;4.80;3.17;;;-0.10;67.90;;;-0.33;52.50;96234.84;5007655;28;20558;-57
2022/01/19 03:43:45;;;;;;;7.27;3.87;;;0.00;67.60;;;-0.32;52.34;96244.31;5008416;28;20464;-57
2022/01/19 03:46:15;;;;;;;5.57;3.10;;;0.00;67.60;;;-0.31;52.35;96241.69;5009720;28;20592;-57
2022/01/19 03:48:53;;;;;;;8.90;4.00;;;0.00;67.80;;;-0.31;52.38;96236.53;5005140;28;20553;-58
2022/01/19 03:51:20;;;;;;;4.73;3.73;;;0.00;68.00;;;-0.25;52.42;96240.66;5010610;28;20516;-57
2022/01/19 03:53:47;;;;;;;7.47;3.60;;;0.00;67.90;;;-0.25;52.29;96236.34;5006937;28;20453;-57
2022/01/19 03:56:15;;;;;;;4.60;3.77;;;0.00;67.60;;;-0.24;52.46;96232.88;5008001;28;20477;-59
2022/01/19 03:58:43;;;;;;;6.73;4.10;;;0.10;67.80;;;-0.22;52.74;96235.41;5008426;28;20589;-57
2022/01/19 04:01:11;;;;;;;5.30;3.27;;;0.10;68.20;;;-0.21;52.17;96227.59;5007053;28;20531;-59
2022/01/19 04:06:23;;;;;;;20.23;3.40;;;0.10;67.90;;;-0.16;52.00;96235.25;5004957;28;20473;-57
2022/01/19 04:08:50;;;;;;;7.60;4.20;;;0.10;67.60;;;-0.15;52.22;96228.34;5008575;28;20437;-58
2022/01/19 04:11:20;;;;;;;6.87;3.30;;;0.20;67.40;;;-0.14;52.24;96235.22;5006976;28;20486;-57
2022/01/19 04:14:21;;;;;;;6.20;3.60;;;0.20;67.80;;;-0.12;52.47;96238.63;5005177;28;20458;-58
2022/01/19 04:16:47;;;;;;;8.47;3.67;;;0.10;67.70;;;-0.10;52.46;96231.66;5001868;28;20470;-57
2022/01/19 04:19:23;;;;;;;7.17;4.00;;;0.20;67.80;;;-0.09;51.88;96241.97;5006295;28;20469;-57
2022/01/19 04:21:50;;;;;;;10.00;4.03;;;0.20;67.30;;;-0.04;52.53;96245.25;5007364;28;20473;-57
2022/01/19 04:24:18;;;;;;;7.90;3.17;;;0.20;67.80;;;-0.02;52.30;96253.84;5006949;28;21004;-57
2022/01/19 04:26:48;;;;;;;6.97;4.30;;;0.30;67.20;;;-0.04;51.88;96257.34;5003135;28;21032;-57
2022/01/19 04:29:16;;;;;;;9.23;4.47;;;0.30;67.20;;;-0.04;52.41;96271.13;5008631;28;20531;-57
2022/01/19 04:31:44;;;;;;;5.70;4.23;;;0.20;67.10;;;-0.05;52.03;96268.56;5006913;28;20493;-60
2022/01/19 04:34:14;;;;;;;8.33;4.17;;;0.20;67.10;;;-0.05;52.14;96268.56;5005779;28;20557;-59
2022/01/19 04:37:10;;;;;;;10.43;3.77;;;0.20;67.10;;;-0.05;52.19;96277.22;5002899;28;20466;-56
2022/01/19 04:45:39;;;;;;;5.43;3.80;;;0.30;67.20;;;-0.05;51.85;96277.22;4974154;28;21005;-58
2022/01/19 04:48:18;;;;;;;6.07;4.20;;;0.20;67.20;;;-0.03;52.33;96278.00;5007706;28;20973;-57
2022/01/19 05:01:51;;;;;;;8.43;4.27;;;0.20;67.90;;;-0.08;52.53;96291.94;5003340;28;20497;-55
2022/01/19 05:04:32;;;;;;;8.43;4.13;;;0.20;67.90;;;-0.07;52.39;96291.06;5005557;28;20543;-58
2022/01/19 05:07:12;;;;;;;10.80;4.93;;;0.20;68.70;;;-0.09;52.66;96303.19;4993049;28;20515;-57
2022/01/19 05:10:05;;;;;;;10.33;4.60;;;0.20;68.20;;;-0.09;55.57;96304.03;5010324;28;20446;-57
2022/01/19 05:15:19;;;;;;;5.70;4.20;;;0.20;69.60;;;-0.10;52.44;96288.56;5009060;28;20988;-56
2022/01/19 05:17:47;;;;;;;6.23;4.43;;;0.20;68.90;;;-0.13;53.50;96284.28;5009738;28;21035;-59
2022/01/19 05:20:15;;;;;;;8.07;3.53;;;0.20;70.30;;;-0.16;53.00;96292.13;5005620;28;20469;-57
2022/01/19 05:22:43;;;;;;;6.17;3.70;;;0.10;69.80;;;-0.21;53.17;96294.00;5009965;28;20461;-57
2022/01/19 05:25:10;;;;;;;6.50;3.93;;;0.10;69.40;;;-0.27;53.52;96300.16;5007185;28;20901;-57
2022/01/19 05:27:37;;;;;;;8.63;5.23;;;0.00;69.40;;;-0.31;53.16;96313.19;5007110;28;20460;-58
2022/01/19 05:30:06;;;;;;;5.70;4.90;;;0.00;69.20;;;-0.35;53.16;96316.78;5007891;28;20974;-58
2022/01/19 05:32:34;;;;;;;18.17;7.23;;;0.00;69.30;;;-0.41;53.00;96312.59;5004628;28;20493;-58
2022/01/19 05:35:03;;;;;;;10.30;6.20;;;-0.10;69.20;;;-0.47;53.22;96313.56;5000646;28;20529;-57
2022/01/19 05:37:36;;;;;;;8.57;5.37;;;-0.10;69.60;;;-0.53;53.42;96312.88;5001315;28;20457;-58
2022/01/19 05:40:04;;;;;;;7.93;5.73;;;-0.20;69.70;;;-0.59;53.38;96325.06;5006337;28;20453;-57
2022/01/19 05:42:31;;;;;;;10.67;5.10;;;-0.20;69.60;;;-0.66;53.69;96323.50;5004390;28;20461;-58
2022/01/19 05:44:59;;;;;;;10.50;5.27;;;-0.30;69.90;;;-0.69;54.20;96327.91;4968969;28;1141565;-58
2022/01/19 05:47:26;;;;;;;9.13;4.70;;;-0.40;70.70;;;-0.72;53.96;96334.81;5006657;28;20199;-57
2022/01/19 05:49:53;;;;;;;5.67;4.60;;;-0.40;70.60;;;-0.75;53.83;96340.06;5008484;28;20462;-57
2022/01/19 05:52:22;;;;;;;12.43;4.50;;;-0.40;70.70;;;-0.80;53.54;96347.06;5009164;28;20485;-57
2022/01/19 05:54:49;;;;;;;8.33;5.17;;;-0.40;70.70;;;-0.84;54.25;96342.84;5004361;28;20530;-58
2022/01/19 05:57:17;;;;;;;11.80;4.50;;;-0.50;71.10;;;-0.85;54.79;96348.91;5006186;28;20461;-56
2022/01/19 05:59:44;;;;;;;5.40;4.33;;;-0.50;71.80;;;-0.85;54.64;96348.06;5008091;28;20471;-58
2022/01/19 06:02:12;;;;;;;12.80;4.70;;;-0.50;71.90;;;-0.85;54.50;96354.09;5005417;28;20813;-57
2022/01/19 06:04:39;;;;;;;11.60;5.30;;;-0.50;71.70;;;-0.85;54.62;96358.38;5004726;28;21047;-58
2022/01/19 06:07:07;;;;;;;7.60;4.53;;;-0.50;71.70;;;-0.83;54.51;96359.22;5006384;28;20557;-58
2022/01/19 06:09:47;;;;;;;17.87;5.20;;;-0.50;72.00;;;-0.79;54.58;96359.13;5007546;28;20461;-57
2022/01/19 06:12:15;;;;;;;11.30;5.10;;;-0.50;72.00;;;-0.69;54.56;96348.56;5009013;28;20503;-58
2022/01/19 06:14:44;;;;;;;13.60;5.33;;;-0.40;72.10;;;-0.55;54.87;96356.84;5010009;28;20456;-57
2022/01/19 06:17:13;;;;;;;18.90;5.87;;;-0.30;72.80;;;-0.35;54.53;96355.53;5010648;28;20922;-58
2022/01/19 06:19:41;;;;;;;15.00;6.67;;;-0.10;72.70;;;-0.16;53.73;96361.09;5011005;28;20528;-57
2022/01/19 06:22:08;;;;;;;13.90;7.13;;;0.00;72.20;;;0.12;54.38;96358.66;5010677;28;20470;-57
2022/01/19 06:24:37;;;;;;;26.23;6.80;;;0.20;72.20;;;0.48;53.81;96364.63;5010497;28;20453;-58
2022/01/19 06:27:05;;;;;;;9.53;5.27;;;0.50;71.80;;;0.86;52.73;96370.47;5008928;28;20482;-58
2022/01/19 06:29:32;;;;;;;12.47;5.57;;;0.90;71.10;;;1.31;51.88;96368.31;5009740;28;20461;-58
2022/01/19 06:32:00;;;;;;;13.13;7.20;;;1.30;70.30;;;1.73;52.16;96360.94;5008344;28;21129;-58
2022/01/19 06:34:27;;;;;;;7.57;4.80;;;1.70;69.30;;;2.17;50.68;96359.53;5007606;28;20458;-57
2022/01/19 06:36:55;;;;;;;11.47;4.83;;;2.10;68.10;;;2.59;50.60;96357.19;5010407;28;20556;-58
2022/01/19 06:39:22;;;;;;;12.30;5.00;;;2.50;67.10;;;3.04;49.95;96359.03;5006506;28;20868;-57
2022/01/19 06:41:51;;;;;;;9.83;4.70;;;3.00;66.30;;;3.51;48.65;96359.88;5010573;28;20509;-57
2022/01/19 06:44:18;;;;;;;8.50;4.70;;;3.40;64.40;;;3.92;48.14;96360.84;5008803;28;20469;-57
2022/01/19 06:46:45;;;;;;;14.37;5.37;;;3.80;63.50;;;4.36;46.94;96372.09;5007261;28;20496;-57
2022/01/19 06:49:13;;;;;;;13.50;5.40;;;4.30;62.50;;;4.83;46.82;96375.25;5009583;28;20994;-58
2022/01/19 06:51:40;;;;;;;14.27;5.70;;;4.80;61.70;;;5.28;45.75;96370.63;5008882;28;20481;-57
2022/01/19 06:54:08;;;;;;;14.37;6.83;;;5.20;59.80;;;5.70;45.52;96369.56;5009326;28;20462;-56
2022/01/19 06:56:37;;;;;;;13.90;6.77;;;5.70;59.10;;;6.18;44.35;96366.41;5010017;28;20577;-57
2022/01/19 06:59:06;;;;;;;13.93;5.53;;;6.20;58.10;;;6.67;43.72;96374.41;5009779;28;20478;-57
2022/01/19 07:01:33;;;;;;;13.40;6.10;;;6.80;57.20;;;7.14;43.59;96371.09;5007402;28;20885;-58
2022/01/19 07:04:01;;;;;;;14.20;6.60;;;7.30;56.30;;;7.65;42.39;96359.63;5008984;28;20454;-58
2022/01/19 07:06:28;;;;;;;18.10;5.60;;;7.80;55.40;;;8.16;42.76;96356.78;5009733;28;21025;-58
2022/01/19 07:08:56;;;;;;;10.80;6.30;;;8.30;54.60;;;8.60;41.04;96362.09;5008877;28;20457;-57
2022/01/19 07:11:23;;;;;;;11.50;6.10;;;8.70;52.20;;;9.00;40.37;96360.63;5008300;28;20480;-58
2022/01/19 07:13:50;;;;;;;11.83;6.67;;;9.10;51.90;;;9.41;41.13;96355.47;5008215;28;20489;-59
2022/01/19 07:16:19;;;;;;;17.23;6.90;;;9.50;52.30;;;9.81;40.44;96345.06;5009866;28;20991;-58
2022/01/19 07:18:46;;;;;;;19.20;8.83;;;9.90;52.00;;;10.18;40.01;96340.03;5007904;28;20454;-58
2022/01/19 07:21:13;;;;;;;12.13;6.10;;;10.40;49.90;;;10.65;36.86;96343.09;5010064;28;20474;-58
2022/01/19 07:23:41;;;;;;;22.10;7.97;;;10.80;47.30;;;11.06;38.19;96333.31;5009802;28;20470;-58
2022/01/19 07:26:08;;;;;;;17.27;7.23;;;11.30;47.90;;;11.46;38.30;96330.50;5009832;28;20473;-58
2022/01/19 07:28:38;;;;;;;11.13;6.80;;;11.80;47.80;;;11.84;37.65;96330.38;5006272;28;20454;-57
2022/01/19 07:31:05;;;;;;;11.40;5.17;;;12.20;47.40;;;12.15;36.88;96328.16;5008668;28;20481;-59
2022/01/19 07:33:34;;;;;;;11.60;6.20;;;12.60;46.30;;;12.42;35.81;96340.25;5009338;28;20504;-57
2022/01/19 07:36:01;;;;;;;15.40;5.10;;;12.90;44.20;;;12.59;35.86;96343.44;5008298;28;20946;-58
2022/01/19 07:38:29;;;;;;;16.00;6.00;;;13.20;43.70;;;12.87;33.76;96342.16;5009252;28;20457;-56
2022/01/19 07:40:56;;;;;;;12.77;6.20;;;13.30;42.60;;;13.20;34.85;96338.72;5008819;28;20469;-57
2022/01/19 07:43:23;;;;;;;16.47;5.93;;;13.50;43.80;;;13.51;34.85;96336.34;5009214;28;20484;-58
2022/01/19 07:45:51;;;;;;;9.53;5.90;;;13.80;43.60;;;13.79;34.42;96332.34;5008414;28;20485;-58
2022/01/19 07:48:18;;;;;;;18.50;6.07;;;14.00;43.00;;;14.08;33.94;96333.56;5007686;28;20446;-58
2022/01/19 07:50:47;;;;;;;11.43;5.70;;;14.10;42.10;;;14.32;33.59;96334.22;5007378;28;20492;-58
2022/01/19 07:53:14;;;;;;;13.40;5.40;;;14.30;41.90;;;14.62;33.27;96334.47;5006871;28;20497;-58
2022/01/19 07:55:42;;;;;;;11.10;5.20;;;14.50;41.60;;;14.82;32.13;96335.44;5008226;28;20476;-58
2022/01/19 07:58:10;;;;;;;11.87;5.10;;;14.70;39.50;;;15.00;30.93;96325.09;5008966;28;20458;-59
2022/01/19 08:00:38;;;;;;;12.40;5.43;;;14.90;39.40;;;15.07;31.83;96331.53;5009280;28;20556;-58
2022/01/19 08:03:06;;;;;;;8.80;5.53;;;14.90;39.40;;;14.94;31.62;96331.75;5009044;28;20454;-58
2022/01/19 08:05:33;;;;;;;15.13;6.30;;;14.90;38.60;;;14.95;31.91;96329.94;5009273;28;20477;-58
2022/01/19 08:08:02;;;;;;;9.50;4.80;;;14.80;39.30;;;15.09;29.42;96334.91;5009611;28;20561;-59
2022/01/19 08:10:30;;;;;;;10.50;5.10;;;14.90;37.50;;;15.18;31.43;96328.81;5009620;28;20473;-58
2022/01/19 08:13:01;;;;;;;9.97;5.93;;;15.00;39.40;;;15.36;30.96;96338.78;5009569;28;20493;-58
2022/01/19 08:15:28;;;;;;;6.30;5.20;;;15.20;38.60;;;15.51;30.92;96321.56;5009326;28;20856;-59
2022/01/19 08:17:56;;;;;;;11.60;5.30;;;15.30;38.30;;;15.52;30.90;96330.34;5006531;28;20848;-58
2022/01/19 08:20:23;;;;;;;11.80;4.87;;;15.30;38.40;;;15.30;30.53;96332.19;5010349;28;20493;-58
2022/01/19 08:22:50;;;;;;;7.30;4.90;;;15.20;37.80;;;15.04;30.98;96337.94;5008649;28;20449;-58
2022/01/19 08:25:19;;;;;;;12.93;5.97;;;15.10;38.40;;;15.08;31.21;96325.28;5008762;28;20477;-60
2022/01/19 08:27:47;;;;;;;13.20;5.40;;;15.00;38.30;;;15.13;31.05;96327.53;5008713;28;20919;-58
2022/01/19 08:30:14;;;;;;;9.10;5.30;;;15.00;38.00;;;15.03;30.97;96332.78;5011926;28;20891;-58
2022/01/19 08:32:42;;;;;;;12.73;5.90;;;14.90;38.20;;;14.53;30.96;96328.09;5008156;28;21033;-58
2022/01/19 08:35:10;;;;;;;10.43;5.50;;;14.50;37.60;;;14.01;31.34;96330.59;5008271;28;20453;-58
2022/01/19 08:37:37;;;;;;;18.40;5.50;;;14.10;37.40;;;13.59;31.69;96318.06;5010972;28;20514;-58
2022/01/19 08:40:08;;;;;;;13.33;5.63;;;13.70;38.10;;;13.22;31.54;96320.94;5006470;28;20445;-57
2022/01/19 08:42:37;;;;;;;14.10;5.00;;;13.40;38.10;;;12.82;31.86;96328.50;5008702;28;20437;-57
2022/01/19 08:45:07;;;;;;;8.30;4.80;;;12.90;37.90;;;12.15;32.16;96320.25;5006978;28;20469;-58
2022/01/19 08:47:35;;;;;;;11.20;4.47;;;12.40;38.00;;;11.59;32.62;96312.88;5008223;28;20461;-58
2022/01/19 08:50:02;;;;;;;8.10;4.40;;;11.80;38.70;;;11.08;32.81;96305.94;5005361;28;20508;-57
2022/01/19 08:52:30;;;;;;;13.97;5.00;;;11.20;38.60;;;10.51;33.32;96309.81;5009878;28;20865;-58
2022/01/19 08:54:57;;;;;;;11.23;5.30;;;10.70;39.10;;;9.89;33.95;96307.78;5009209;28;20477;-58
2022/01/19 08:57:25;;;;;;;7.07;4.00;;;10.20;40.00;;;9.35;34.59;96313.00;5006315;28;20516;-58
2022/01/19 08:59:53;;;;;;;8.17;4.20;;;9.60;41.10;;;8.87;35.52;96313.31;5008924;28;20544;-57
2022/01/19 09:02:21;;;;;;;12.80;4.10;;;9.10;41.90;;;8.49;36.85;96319.94;5006633;28;20434;-57
2022/01/19 09:04:48;;;;;;;7.20;4.40;;;8.70;43.50;;;8.21;37.60;96321.53;5007972;28;20453;-57
2022/01/19 09:07:17;;;;;;;7.60;3.40;;;8.40;45.20;;;7.94;38.06;96321.34;5004377;28;20498;-56
2022/01/19 09:09:44;;;;;;;5.90;3.67;;;8.10;45.00;;;7.52;37.20;96307.94;5007746;28;20804;-57
2022/01/19 09:12:11;;;;;;;8.90;4.47;;;7.70;44.90;;;7.10;37.71;96319.84;5006556;28;20499;-57
2022/01/19 09:14:39;;;;;;;4.67;3.83;;;7.30;45.00;;;6.87;38.28;96323.69;5007332;28;20450;-57
2022/01/19 09:17:08;;;;;;;5.67;4.47;;;7.00;45.60;;;6.68;38.57;96313.38;5010318;28;20492;-57
2022/01/19 09:19:36;;;;;;;12.63;4.87;;;6.80;45.90;;;6.66;39.12;96307.34;5010270;28;20533;-56
2022/01/19 09:22:06;;;;;;;18.63;5.40;;;6.70;46.50;;;6.88;39.41;96308.84;5010318;28;20497;-57
2022/01/19 09:24:34;;;;;;;8.57;4.23;;;6.90;47.10;;;7.25;38.72;96297.25;5010403;28;20449;-56
2022/01/19 09:27:02;;;;;;;12.07;4.40;;;7.10;46.90;;;7.46;38.17;96291.75;5011490;28;20556;-58
2022/01/19 09:29:29;;;;;;;8.00;4.37;;;7.40;46.40;;;7.56;37.31;96292.94;5013035;28;20457;-57
2022/01/19 09:32:00;;;;;;;12.53;4.50;;;7.50;45.60;;;7.56;37.30;96289.44;5011772;28;20848;-59
2022/01/19 09:34:29;;;;;;;14.70;4.80;;;7.60;46.00;;;7.61;37.06;96292.69;5011093;28;21148;-56
2022/01/19 09:36:56;;;;;;;26.23;4.27;;;7.60;45.40;;;7.70;37.50;96271.22;5010927;28;20473;-57
2022/01/19 09:39:25;;;;;;;9.17;4.20;;;7.80;45.70;;;8.07;37.56;96280.41;5011955;28;20453;-57
2022/01/19 09:41:53;;;;;;;8.07;5.03;;;8.00;45.60;;;8.25;36.61;96280.25;5011834;28;20477;-57
2022/01/19 09:44:21;;;;;;;5.87;4.20;;;8.10;44.60;;;8.32;36.81;96275.47;5011201;28;20838;-58
2022/01/19 09:46:48;;;;;;;14.83;5.07;;;8.10;44.60;;;8.32;36.48;96275.47;5013105;28;20484;-57
2022/01/19 09:49:17;;;;;;;7.97;4.60;;;8.20;44.30;;;8.56;36.87;96273.19;5011886;28;20576;-58
2022/01/19 09:51:47;;;;;;;6.67;4.23;;;8.60;45.10;;;9.34;36.54;96272.75;5012297;28;20464;-58
2022/01/19 09:54:14;;;;;;;10.57;4.93;;;9.10;45.00;;;10.24;34.80;96270.44;5011678;28;20544;-57
2022/01/19 09:56:42;;;;;;;12.37;4.83;;;9.90;43.90;;;11.05;34.62;96277.19;5012168;28;20465;-58
2022/01/19 09:59:12;;;;;;;6.93;4.37;;;10.60;43.00;;;11.54;33.58;96262.31;5011114;28;20454;-58
2022/01/19 10:01:50;;;;;;;7.47;4.13;;;11.10;41.80;;;11.99;33.43;96262.53;5012656;28;20461;-57
2022/01/19 10:04:18;;;;;;;6.93;4.50;;;11.70;41.40;;;12.54;32.68;96262.78;5010488;28;20442;-58
2022/01/19 10:06:47;;;;;;;7.10;3.50;;;12.30;40.60;;;13.25;31.19;96244.09;5010779;28;20512;-58
2022/01/19 10:09:14;;;;;;;20.33;8.60;;;12.90;39.10;;;13.93;30.16;96238.66;5013801;28;20446;-58
2022/01/19 10:17:11;;;;;;;11.30;5.63;;;14.50;35.80;;;15.32;28.88;96236.63;5011211;28;20471;-58
2022/01/19 10:19:41;;;;;;;16.93;9.50;;;15.00;35.80;;;15.59;26.25;96226.22;5011374;28;20441;-58
2022/01/19 10:22:13;;;;;;;11.43;5.70;;;15.30;34.00;;;15.81;27.79;96220.84;5009762;28;20977;-58
2022/01/19 10:24:50;;;;;;;10.63;4.80;;;15.50;33.70;;;15.99;27.96;96216.53;5007652;28;20464;-57
2022/01/19 10:27:34;;;;;;;9.63;5.97;;;15.70;34.90;;;16.24;26.32;96219.59;5007993;28;20445;-57
2022/01/19 10:30:28;;;;;;;5.80;4.70;;;15.90;33.00;;;16.22;25.97;96219.72;5007992;28;20457;-58
2022/01/19 10:32:59;;;;;;;10.63;6.30;;;15.90;31.60;;;16.20;27.17;96215.53;4961424;28;20489;-56
2022/01/19 10:35:29;;;;;;;9.13;5.40;;;15.90;32.80;;;16.25;26.88;96205.31;5007883;28;21027;-58
2022/01/19 10:38:14;;;;;;;9.20;5.03;;;15.90;32.30;;;16.43;27.92;96214.22;5009411;28;20454;-58
2022/01/19 10:40:44;;;;;;;10.37;4.80;;;16.10;34.70;;;16.81;26.20;96208.97;5008306;28;20498;-57
2022/01/19 10:43:29;;;;;;;11.23;5.40;;;16.40;32.50;;;17.04;25.67;96214.78;5008440;28;20438;-58
2022/01/19 10:45:57;;;;;;;17.73;5.27;;;16.70;32.70;;;17.20;26.33;96207.00;5010431;28;20988;-56
2022/01/19 10:48:36;;;;;;;10.23;5.03;;;16.90;31.80;;;17.26;23.84;96194.94;5007276;28;20495;-58
2022/01/19 10:51:09;;;;;;;12.03;5.10;;;17.00;29.90;;;17.12;23.75;96190.13;5005073;28;21035;-61
2022/01/19 10:53:37;;;;;;;11.20;5.70;;;16.90;29.60;;;16.91;24.62;96175.22;5008705;28;20504;-58
2022/01/19 10:56:06;;;;;;;9.43;6.07;;;16.80;30.40;;;16.90;25.83;96172.72;5004353;28;20478;-58
2022/01/19 10:58:34;;;;;;;17.63;5.47;;;16.70;31.30;;;16.76;26.09;96172.19;5009190;28;20540;-60
2022/01/19 11:01:01;;;;;;;5.03;3.97;;;16.60;30.80;;;16.72;26.17;96173.47;5008551;28;20474;-57
2022/01/19 11:03:30;;;;;;;10.50;4.13;;;16.60;31.80;;;16.93;25.81;96161.78;5009277;28;20728;-59
2022/01/19 11:05:58;;;;;;;7.60;4.07;;;16.70;31.50;;;17.26;26.41;96146.22;5009152;28;20561;-58
2022/01/19 11:08:27;;;;;;;7.20;4.67;;;16.90;32.20;;;17.61;25.64;96150.72;5009563;28;20989;-58
2022/01/19 11:10:57;;;;;;;12.00;5.03;;;17.20;31.50;;;17.98;25.28;96140.94;5008881;28;20603;-58
2022/01/19 11:13:31;;;;;;;13.53;5.30;;;17.60;31.30;;;18.30;23.57;96140.34;5008214;28;20509;-59
2022/01/19 11:16:01;;;;;;;8.83;5.00;;;17.90;29.30;;;18.18;23.66;96129.09;5007791;28;20473;-57
2022/01/19 11:18:30;;;;;;;8.03;4.20;;;18.10;28.70;;;17.91;23.50;96132.75;5009820;28;20488;-58
2022/01/19 11:20:58;;;;;;;7.90;4.90;;;17.90;28.60;;;17.62;24.66;96131.13;5005947;28;20477;-57
2022/01/19 11:23:32;;;;;;;9.33;4.90;;;17.70;29.90;;;17.33;24.61;96120.69;5009796;28;21056;-59
2022/01/19 11:26:03;;;;;;;11.07;5.43;;;17.50;29.70;;;17.10;24.00;96112.31;5009354;28;20997;-58
2022/01/19 11:28:37;;;;;;;13.77;5.20;;;17.20;28.90;;;16.77;24.68;96111.91;5008066;28;20461;-58
2022/01/19 11:31:07;;;;;;;15.00;5.37;;;17.00;30.00;;;16.47;25.44;96119.19;5007958;28;20910;-58
2022/01/19 11:33:41;;;;;;;12.97;4.93;;;16.70;29.70;;;16.00;25.06;96127.13;5008782;28;20497;-57
2022/01/19 11:36:21;;;;;;;13.77;5.40;;;16.20;29.60;;;15.69;25.92;96125.47;5007216;28;21013;-58